Flugplatz Hohn AB (ETNH)

Hier findest Du alle Informationen zum Flugplatz Hohn AB (ETNH).

Informationen für Piloten zum Flugplatz Hohn AB

Hier findest Du alle relevanten Informationen, die Du als Pilot benötigst, um Hohn AB anzufliegen.

Flugplatz: Hohn AB ICAO-Code: ETNH
Frequenz Turm: 122,100 Mhz GAFOR Gebiet: 3
Frequenz Ground: 122,100 Mhz Mogas: nein
Platzrunde: - Landegebühr: -
Platzhöhe: - Sunrise: 02:45 Uhr UTC
Pisten: 08/26 - 2.440 m x , BIT Sunset: 20:02 Uhr UTC

Flugwetter am Flugplatz Hohn AB

Die METAR Information stammen aus EDHK (39.89 km entfernt).

METAR Code:
2021/06/21 22:20
EDHK 212220Z AUTO 31007KT 9999 // FEW014/// OVC031/// 12/11 Q1011

Temperatur: 15,7 °C Niederschlag: - Wind: 7,0 kt
Temperatur (min.): 15,0 °C Luftdruck: 1017 hPa Windrichtung: 280 °
Temperatur (max.): 16,3 °C Luftfeuchtigkeit: 76 % Bewölkung: 6/8

Flugschulen am Flugplatz Hohn AB

Am Flugplatz Hohn AB gibt es leider keine Flugschule.

Benachbarte Flugplätze und Flugschulen

Es gibt 10 weitere Flugplätze in einem Umkreis von 50 km um den Flugplatz Hohn AB.

Jetzt anmelden

Passwort vergessen

Umfrage Archiv

Seid Ihr aufgrund von Corona im Jahr 2020 mehr oder weniger geflogen als im Jahr zuvor?

weniger
56.6 %
gleich viel
26 %
mehr
17.4 %
Stimmen: 258 | Diskussion
Anzeige: Roland Aircraft
Statistik Alle Mitglieder

Aktuell sind 50 Besucher online, davon 4 Mitglieder und 46 Gäste.


Mitglieder online:
KnickC  Steffen_E  Maik  Heli 

Anzeige: VFR Sprechfunk Simulator Anzeige: Pocket FMS